Terminal Aerodrome Forecast
Issued by NWS

Home | Current Version | Previous Version | Text Only | Print | Product List | Glossary On
Versions: 1 2 3 4 5 6 7 8 9 10 11 12 13
316
FTUS45 KVEF 251720
TAFVGT
TAF
KVGT 251720Z 2518/2618 12005KT P6SM FEW250
     FM252100 21010G18KT P6SM FEW250
     FM260100 22010KT P6SM FEW250
     FM261000 VRB06KT P6SM FEW250=

USA.gov is the U.S. government's official web portal to all federal, state and local government web resources and services.